Time;durP1;ratioP1;P1;durP2;ratioP2;P2;SDS_P1;SDS_P2;PMS_P1;PMS_P2;Temp;Humidity;BMP_temperature;BMP_pressure;BME280_temperature;BME280_humidity;BME280_pressure;Samples;Min_cycle;Max_cycle;Signal;HPM_P1;HPM_P2
2023/08/25 00:00:44;;;;;;;5.53;4.88;;;;;;;;;;5040175;28;20025;-58
2023/08/25 00:03:09;;;;;;;5.68;4.40;;;;;;;;;;5039967;28;20032;-58
2023/08/25 00:05:38;;;;;;;4.82;3.85;;;;;;;;;;5039923;28;20442;-58
2023/08/25 00:08:03;;;;;;;5.10;4.60;;;;;;;;;;5039890;28;20041;-60
2023/08/25 00:10:29;;;;;;;6.32;4.55;;;;;;;;;;5040427;28;20037;-59
2023/08/25 00:12:54;;;;;;;5.40;4.88;;;;;;;;;;5039274;28;20006;-59
2023/08/25 00:15:19;;;;;;;5.85;4.80;;;;;;;;;;5039841;28;20535;-59
2023/08/25 00:17:45;;;;;;;5.43;4.82;;;;;;;;;;5040086;28;20432;-59
2023/08/25 00:20:12;;;;;;;7.45;5.25;;;;;;;;;;5039778;28;20527;-59
2023/08/25 00:22:40;;;;;;;4.78;4.35;;;;;;;;;;5039679;28;20072;-59
2023/08/25 00:25:06;;;;;;;6.10;4.50;;;;;;;;;;5039784;28;20056;-59
2023/08/25 00:27:31;;;;;;;4.47;4.18;;;;;;;;;;5039992;28;20080;-59
2023/08/25 00:29:56;;;;;;;4.38;3.97;;;;;;;;;;5039999;28;20033;-61
2023/08/25 00:32:22;;;;;;;5.88;4.32;;;;;;;;;;5039971;28;20068;-60
2023/08/25 00:34:47;;;;;;;5.85;4.63;;;;;;;;;;5021936;28;20113;-60
2023/08/25 00:37:13;;;;;;;4.10;3.75;;;;;;;;;;5021969;28;20033;-60
2023/08/25 00:39:38;;;;;;;4.80;4.03;;;;;;;;;;5038363;28;20053;-60
2023/08/25 00:42:04;;;;;;;3.88;3.63;;;;;;;;;;5038250;28;20554;-59
2023/08/25 00:44:29;;;;;;;4.18;3.80;;;;;;;;;;5038251;28;20032;-60
2023/08/25 00:46:55;;;;;;;4.75;4.35;;;;;;;;;;5039474;28;20026;-60
2023/08/25 00:49:21;;;;;;;6.32;4.45;;;;;;;;;;5005605;28;20080;-61
2023/08/25 00:51:47;;;;;;;4.72;4.32;;;;;;;;;;5038242;28;20116;-60
2023/08/25 00:54:13;;;;;;;4.78;4.18;;;;;;;;;;5038205;28;20544;-60
2023/08/25 00:56:38;;;;;;;4.68;4.03;;;;;;;;;;5034791;28;20033;-61
2023/08/25 00:59:04;;;;;;;5.78;4.18;;;;;;;;;;5036606;28;20041;-60
2023/08/25 01:01:30;;;;;;;7.13;4.00;;;;;;;;;;5018872;28;20108;-60
2023/08/25 01:03:56;;;;;;;4.38;4.03;;;;;;;;;;5036484;28;20021;-60
2023/08/25 01:06:22;;;;;;;5.22;4.47;;;;;;;;;;5036481;28;20059;-60
2023/08/25 01:08:47;;;;;;;6.95;3.85;;;;;;;;;;5034849;28;20033;-59
2023/08/25 01:11:22;;;;;;;4.13;3.83;;;;;;;;;;5036389;28;20113;-60
2023/08/25 01:13:56;;;;;;;4.03;3.70;;;;;;;;;;5034832;28;20033;-60
2023/08/25 01:16:25;;;;;;;4.40;3.90;;;;;;;;;;5034781;28;20032;-61
2023/08/25 01:18:51;;;;;;;4.97;3.88;;;;;;;;;;5018274;28;20116;-60
2023/08/25 01:21:17;;;;;;;5.63;3.70;;;;;;;;;;5036134;28;20026;-60
2023/08/25 01:23:51;;;;;;;4.07;3.75;;;;;;;;;;5036437;28;20079;-61
2023/08/25 01:26:17;;;;;;;3.92;3.65;;;;;;;;;;5018117;28;20049;-59
2023/08/25 01:28:42;;;;;;;4.25;3.95;;;;;;;;;;5036094;28;20040;-59
2023/08/25 01:31:07;;;;;;;4.32;3.92;;;;;;;;;;5034467;28;20013;-61
2023/08/25 01:33:33;;;;;;;4.07;3.78;;;;;;;;;;5036243;28;20525;-61
2023/08/25 01:35:59;;;;;;;4.53;4.13;;;;;;;;;;5035967;28;20408;-61
2023/08/25 01:38:33;;;;;;;4.10;3.83;;;;;;;;;;5034352;28;20037;-61
2023/08/25 01:41:04;;;;;;;4.25;3.85;;;;;;;;;;5017786;28;20033;-61
2023/08/25 01:43:32;;;;;;;4.30;3.88;;;;;;;;;;5035840;28;20425;-61
2023/08/25 01:45:58;;;;;;;4.25;3.88;;;;;;;;;;5035465;28;20453;-62
2023/08/25 01:48:26;;;;;;;4.25;3.92;;;;;;;;;;5046528;23;20533;-63
2023/08/25 01:50:52;;;;;;;4.18;3.85;;;;;;;;;;5014130;28;20527;-63
2023/08/25 01:53:18;;;;;;;4.18;3.72;;;;;;;;;;4998008;28;20548;-63
2023/08/25 01:55:43;;;;;;;3.85;3.55;;;;;;;;;;5015496;28;20033;-61
2023/08/25 01:58:09;;;;;;;4.30;3.67;;;;;;;;;;4981711;28;20029;-62
2023/08/25 02:00:34;;;;;;;3.90;3.50;;;;;;;;;;4997814;28;20044;-62
2023/08/25 02:03:00;;;;;;;4.20;3.72;;;;;;;;;;5016195;28;20038;-62
2023/08/25 02:05:25;;;;;;;4.80;3.85;;;;;;;;;;4997759;28;20018;-62
2023/08/25 02:07:50;;;;;;;5.18;3.22;;;;;;;;;;5014388;28;20088;-63
2023/08/25 02:10:19;;;;;;;3.97;3.67;;;;;;;;;;4997668;28;20030;-62
2023/08/25 02:12:44;;;;;;;4.35;3.95;;;;;;;;;;5015197;28;20029;-62
2023/08/25 02:15:10;;;;;;;4.10;3.70;;;;;;;;;;4997524;28;20033;-62
2023/08/25 02:17:35;;;;;;;4.38;3.97;;;;;;;;;;5015006;28;20060;-64
2023/08/25 02:20:01;;;;;;;4.28;3.95;;;;;;;;;;4981288;28;20022;-62
2023/08/25 02:22:26;;;;;;;4.35;3.95;;;;;;;;;;4997379;28;20465;-62
2023/08/25 02:24:53;;;;;;;5.82;3.67;;;;;;;;;;4997394;28;20113;-62
2023/08/25 02:27:19;;;;;;;4.07;3.78;;;;;;;;;;5015229;28;20057;-63
2023/08/25 02:29:45;;;;;;;3.88;3.58;;;;;;;;;;4997314;28;20034;-63
2023/08/25 02:32:11;;;;;;;5.82;4.10;;;;;;;;;;4997280;28;20026;-63
2023/08/25 02:34:37;;;;;;;4.15;3.75;;;;;;;;;;5015053;28;20393;-63
2023/08/25 02:37:02;;;;;;;3.85;3.45;;;;;;;;;;5015004;28;20046;-61
2023/08/25 02:39:28;;;;;;;3.47;3.25;;;;;;;;;;4997436;28;20062;-60
2023/08/25 02:41:55;;;;;;;3.33;3.13;;;;;;;;;;4997005;28;20460;-62
2023/08/25 02:44:21;;;;;;;3.30;3.03;;;;;;;;;;4997066;28;20018;-59
2023/08/25 02:46:47;;;;;;;3.50;3.22;;;;;;;;;;4996996;28;20116;-58
2023/08/25 02:49:13;;;;;;;5.63;3.42;;;;;;;;;;5020763;28;20515;-59
2023/08/25 02:51:38;;;;;;;4.15;3.80;;;;;;;;;;5033001;28;20124;-58
2023/08/25 02:54:04;;;;;;;22.17;4.97;;;;;;;;;;5032940;28;20068;-60
2023/08/25 02:56:29;;;;;;;6.05;3.58;;;;;;;;;;5034458;28;20029;-61
2023/08/25 02:58:54;;;;;;;4.88;3.40;;;;;;;;;;5034093;28;20114;-59
2023/08/25 03:01:20;;;;;;;3.63;3.40;;;;;;;;;;5016274;28;20120;-60
2023/08/25 03:03:45;;;;;;;3.38;3.08;;;;;;;;;;5032778;28;20492;-60
2023/08/25 03:06:12;;;;;;;5.38;3.47;;;;;;;;;;5032721;28;20481;-60
2023/08/25 03:08:38;;;;;;;4.05;3.65;;;;;;;;;;5032686;28;20032;-59
2023/08/25 03:11:03;;;;;;;4.57;3.42;;;;;;;;;;5034166;28;20014;-59
2023/08/25 03:13:29;;;;;;;4.55;3.58;;;;;;;;;;5032652;28;20126;-60
2023/08/25 03:15:55;;;;;;;3.45;3.22;;;;;;;;;;5016427;28;20021;-59
2023/08/25 03:18:21;;;;;;;3.33;3.13;;;;;;;;;;5032142;28;20113;-59
2023/08/25 03:20:51;;;;;;;3.65;3.35;;;;;;;;;;5015996;28;20061;-59
2023/08/25 03:23:17;;;;;;;;;;;;;;;;;;5032894;28;20036;-59
2023/08/25 03:25:42;;;;;;;3.85;3.33;;;;;;;;;;5032456;28;20265;-59
2023/08/25 03:28:08;;;;;;;4.68;3.67;;;;;;;;;;5033737;28;20385;-60
2023/08/25 03:30:33;;;;;;;7.25;3.88;;;;;;;;;;5015987;28;20370;-61
2023/08/25 03:32:59;;;;;;;8.40;3.42;;;;;;;;;;5033919;28;20065;-60
2023/08/25 03:35:26;;;;;;;4.32;3.65;;;;;;;;;;5015928;28;20055;-60
2023/08/25 03:37:51;;;;;;;4.63;3.83;;;;;;;;;;5032277;28;20119;-60
2023/08/25 03:40:18;;;;;;;4.80;3.78;;;;;;;;;;5015879;28;20052;-60
2023/08/25 03:42:45;;;;;;;8.60;3.70;;;;;;;;;;5032216;28;20030;-60
2023/08/25 03:45:11;;;;;;;5.03;3.50;;;;;;;;;;5032270;28;20382;-58
2023/08/25 03:47:36;;;;;;;6.05;3.38;;;;;;;;;;5032220;28;20056;-59
2023/08/25 03:50:01;;;;;;;4.00;3.75;;;;;;;;;;5032216;28;20046;-59
2023/08/25 03:52:28;;;;;;;6.15;3.28;;;;;;;;;;5015779;28;20556;-60
2023/08/25 03:54:54;;;;;;;4.70;3.63;;;;;;;;;;5032057;28;20172;-59
2023/08/25 03:57:19;;;;;;;4.95;4.15;;;;;;;;;;5032053;28;20108;-62
2023/08/25 03:59:45;;;;;;;4.18;3.85;;;;;;;;;;5033336;28;20045;-59
2023/08/25 04:02:11;;;;;;;7.00;3.72;;;;;;;;;;5033156;28;20061;-62
2023/08/25 04:04:36;;;;;;;4.38;4.05;;;;;;;;;;5032314;28;20040;-59
2023/08/25 04:07:03;;;;;;;4.97;4.18;;;;;;;;;;5033048;28;20033;-59
2023/08/25 04:09:28;;;;;;;6.40;3.95;;;;;;;;;;5031819;28;20026;-59
2023/08/25 04:11:57;;;;;;;6.80;4.55;;;;;;;;;;5032680;28;20037;-59
2023/08/25 04:14:22;;;;;;;5.05;4.15;;;;;;;;;;5014531;28;20038;-59
2023/08/25 04:16:47;;;;;;;7.63;5.03;;;;;;;;;;5031975;28;20029;-60
2023/08/25 04:19:16;;;;;;;7.03;4.72;;;;;;;;;;4997698;28;20026;-59
2023/08/25 04:21:43;;;;;;;4.68;3.58;;;;;;;;;;5013778;28;20040;-59
2023/08/25 04:24:10;;;;;;;4.68;4.13;;;;;;;;;;5029036;28;20056;-62
2023/08/25 04:26:36;;;;;;;4.65;4.20;;;;;;;;;;5031496;28;20412;-62
2023/08/25 04:29:04;;;;;;;6.05;4.55;;;;;;;;;;5013767;28;20021;-63
2023/08/25 04:31:29;;;;;;;5.18;4.68;;;;;;;;;;5016760;28;20025;-63
2023/08/25 04:33:57;;;;;;;4.95;4.22;;;;;;;;;;5017495;28;20030;-63
2023/08/25 04:36:23;;;;;;;6.28;4.15;;;;;;;;;;5035490;28;20028;-63
2023/08/25 04:38:48;;;;;;;7.63;4.57;;;;;;;;;;5035616;28;20473;-60
2023/08/25 04:41:15;;;;;;;4.60;4.20;;;;;;;;;;5017190;28;20022;-59
2023/08/25 04:43:41;;;;;;;4.63;3.85;;;;;;;;;;5017530;28;20025;-62
2023/08/25 04:46:07;;;;;;;4.43;3.85;;;;;;;;;;5017589;28;20025;-59
2023/08/25 04:48:33;;;;;;;6.53;3.92;;;;;;;;;;5017318;28;20014;-59
2023/08/25 04:50:59;;;;;;;9.45;4.78;;;;;;;;;;5018633;28;20401;-65
2023/08/25 04:53:24;;;;;;;11.13;7.85;;;;;;;;;;5035942;28;20044;-67
2023/08/25 04:55:50;;;;;;;13.23;9.88;;;;;;;;;;5018293;28;20040;-67
2023/08/25 04:58:16;;;;;;;7.45;6.35;;;;;;;;;;5018247;28;20034;-67
2023/08/25 05:00:42;;;;;;;6.15;4.57;;;;;;;;;;5017685;28;20036;-67
2023/08/25 05:03:08;;;;;;;11.27;6.40;;;;;;;;;;5018280;28;20021;-67
2023/08/25 05:05:34;;;;;;;13.15;6.18;;;;;;;;;;5026757;23;20466;-67
2023/08/25 05:07:59;;;;;;;12.68;5.80;;;;;;;;;;5016394;28;20120;-60
2023/08/25 05:10:24;;;;;;;9.23;5.45;;;;;;;;;;5016342;28;20025;-59
2023/08/25 05:12:50;;;;;;;9.20;4.28;;;;;;;;;;5032751;28;20048;-59
2023/08/25 05:15:15;;;;;;;7.28;4.57;;;;;;;;;;5016548;28;20432;-59
2023/08/25 05:17:40;;;;;;;9.63;4.38;;;;;;;;;;5032720;28;20037;-59
2023/08/25 05:20:08;;;;;;;10.45;4.65;;;;;;;;;;5032845;28;20096;-60
2023/08/25 05:22:33;;;;;;;4.97;4.28;;;;;;;;;;5035095;28;20442;-59
2023/08/25 05:24:58;;;;;;;7.53;4.20;;;;;;;;;;5017976;28;20061;-59
2023/08/25 05:27:25;;;;;;;7.38;4.18;;;;;;;;;;5034485;28;20640;-61
2023/08/25 05:29:52;;;;;;;5.65;3.80;;;;;;;;;;4998700;28;20030;-66
2023/08/25 05:32:21;;;;;;;7.80;4.20;;;;;;;;;;4998994;28;20339;-66
2023/08/25 05:35:23;;;;;;;4.90;3.55;;;;;;;;;;4998771;28;20030;-66
2023/08/25 05:37:49;;;;;;;4.53;3.55;;;;;;;;;;5014853;28;20672;-66
2023/08/25 05:40:14;;;;;;;5.53;4.03;;;;;;;;;;4998821;28;20116;-66
2023/08/25 05:42:42;;;;;;;4.68;4.28;;;;;;;;;;5014702;28;20058;-66
2023/08/25 05:45:08;;;;;;;4.50;4.05;;;;;;;;;;5015716;28;20049;-67
2023/08/25 05:47:34;;;;;;;5.57;4.40;;;;;;;;;;5014807;28;20034;-66
2023/08/25 05:49:59;;;;;;;5.70;3.75;;;;;;;;;;4982572;28;20381;-66
2023/08/25 05:52:24;;;;;;;5.32;4.05;;;;;;;;;;5016115;28;20065;-66
2023/08/25 05:54:50;;;;;;;4.72;4.00;;;;;;;;;;5015541;28;20172;-66
2023/08/25 05:57:16;;;;;;;4.70;4.30;;;;;;;;;;5015472;28;20436;-66
2023/08/25 05:59:41;;;;;;;5.60;3.70;;;;;;;;;;5015706;28;20030;-66
2023/08/25 06:02:06;;;;;;;6.88;4.05;;;;;;;;;;5015355;28;20022;-66
2023/08/25 06:04:32;;;;;;;4.50;4.10;;;;;;;;;;5015260;28;20117;-67
2023/08/25 06:06:57;;;;;;;7.25;4.60;;;;;;;;;;5013855;28;20040;-66
2023/08/25 06:09:23;;;;;;;7.53;4.10;;;;;;;;;;5015305;28;20029;-66
2023/08/25 06:11:49;;;;;;;6.93;3.72;;;;;;;;;;5014910;28;20065;-67
2023/08/25 06:14:14;;;;;;;4.68;4.22;;;;;;;;;;4998036;28;20030;-67
2023/08/25 06:16:39;;;;;;;4.68;3.60;;;;;;;;;;4997337;28;20120;-67
2023/08/25 06:19:05;;;;;;;6.95;4.00;;;;;;;;;;5013958;28;20109;-67
2023/08/25 06:21:30;;;;;;;5.28;3.78;;;;;;;;;;5014996;28;20117;-66
2023/08/25 06:23:56;;;;;;;4.47;3.95;;;;;;;;;;5014691;28;20049;-69
2023/08/25 06:26:21;;;;;;;5.70;3.63;;;;;;;;;;5014664;28;20113;-65
2023/08/25 06:28:46;;;;;;;4.60;3.47;;;;;;;;;;4997148;28;20030;-65
2023/08/25 06:31:12;;;;;;;4.07;3.63;;;;;;;;;;4997177;28;20072;-65
2023/08/25 06:33:38;;;;;;;10.10;3.92;;;;;;;;;;5015377;28;20513;-65
2023/08/25 06:36:04;;;;;;;8.32;3.67;;;;;;;;;;5015268;28;20029;-65
2023/08/25 06:38:29;;;;;;;3.63;3.17;;;;;;;;;;5015029;28;20433;-65
2023/08/25 06:40:55;;;;;;;4.55;3.35;;;;;;;;;;5015176;28;20034;-65
2023/08/25 06:43:20;;;;;;;3.67;3.20;;;;;;;;;;5014951;28;20026;-65
2023/08/25 06:45:46;;;;;;;19.35;10.77;;;;;;;;;;5014622;28;20489;-65
2023/08/25 06:48:11;;;;;;;33.85;16.73;;;;;;;;;;4997210;28;20029;-65
2023/08/25 06:50:37;;;;;;;24.98;11.93;;;;;;;;;;5014680;28;20032;-65
2023/08/25 06:53:04;;;;;;;18.35;10.30;;;;;;;;;;5014308;28;20109;-65
2023/08/25 06:55:32;;;;;;;10.55;6.20;;;;;;;;;;5014699;28;20041;-65
2023/08/25 06:57:59;;;;;;;5.93;4.30;;;;;;;;;;5015038;28;20034;-65
2023/08/25 07:00:25;;;;;;;6.60;3.63;;;;;;;;;;5014373;28;20042;-65
2023/08/25 07:02:51;;;;;;;4.97;4.00;;;;;;;;;;5014532;28;20030;-65
2023/08/25 07:05:16;;;;;;;6.03;4.05;;;;;;;;;;5014560;28;20049;-65
2023/08/25 07:07:42;;;;;;;5.03;3.58;;;;;;;;;;5014494;28;20551;-65
2023/08/25 07:10:08;;;;;;;9.25;3.95;;;;;;;;;;5014497;28;20041;-65
2023/08/25 07:12:33;;;;;;;4.00;3.53;;;;;;;;;;5013251;28;20042;-65
2023/08/25 07:14:58;;;;;;;8.07;3.20;;;;;;;;;;5014437;28;20044;-65
2023/08/25 07:17:24;;;;;;;4.07;3.70;;;;;;;;;;5014404;28;20062;-65
2023/08/25 07:19:49;;;;;;;5.43;3.88;;;;;;;;;;5014260;28;20493;-65
2023/08/25 07:22:15;;;;;;;5.95;4.00;;;;;;;;;;5014212;28;20069;-65
2023/08/25 07:24:40;;;;;;;4.82;4.05;;;;;;;;;;5014010;28;20033;-65
2023/08/25 07:27:05;;;;;;;4.68;3.55;;;;;;;;;;5014658;28;20119;-65
2023/08/25 07:29:34;;;;;;;7.25;4.10;;;;;;;;;;5013412;28;20097;-59
2023/08/25 07:32:00;;;;;;;6.60;3.72;;;;;;;;;;5014216;28;20072;-59
2023/08/25 07:34:25;;;;;;;5.35;3.92;;;;;;;;;;5014230;28;20092;-59
2023/08/25 07:36:52;;;;;;;4.32;3.97;;;;;;;;;;5013947;28;20117;-59
2023/08/25 07:39:18;;;;;;;3.83;3.28;;;;;;;;;;5013878;28;20366;-60
2023/08/25 07:41:43;;;;;;;6.03;3.67;;;;;;;;;;5013988;28;20061;-59
2023/08/25 07:44:09;;;;;;;4.43;3.53;;;;;;;;;;5014096;28;20038;-60
2023/08/25 07:46:37;;;;;;;7.20;3.88;;;;;;;;;;5012968;28;20029;-60
2023/08/25 07:49:03;;;;;;;4.65;3.50;;;;;;;;;;5014282;28;20037;-60
2023/08/25 07:51:28;;;;;;;7.63;4.07;;;;;;;;;;5013710;28;20034;-59
2023/08/25 07:53:53;;;;;;;6.93;5.18;;;;;;;;;;5014039;28;20038;-60
2023/08/25 07:56:19;;;;;;;10.35;4.82;;;;;;;;;;5013960;28;20033;-60
2023/08/25 07:58:44;;;;;;;8.20;4.50;;;;;;;;;;5014364;28;20367;-60
2023/08/25 08:01:11;;;;;;;5.30;3.60;;;;;;;;;;4995976;28;20034;-60
2023/08/25 08:03:36;;;;;;;7.93;6.07;;;;;;;;;;5011425;28;20042;-60
2023/08/25 08:06:02;;;;;;;4.53;4.05;;;;;;;;;;5000491;28;20037;-59
2023/08/25 08:08:28;;;;;;;6.47;4.90;;;;;;;;;;5017813;28;20033;-59
2023/08/25 08:10:53;;;;;;;8.30;4.72;;;;;;;;;;5018515;28;20113;-59
2023/08/25 08:13:19;;;;;;;6.82;3.80;;;;;;;;;;5036541;28;20061;-59
2023/08/25 08:15:45;;;;;;;4.43;3.97;;;;;;;;;;5037702;28;20033;-65
2023/08/25 08:18:11;;;;;;;3.25;3.05;;;;;;;;;;5037684;28;20040;-65
2023/08/25 08:20:37;;;;;;;5.15;3.67;;;;;;;;;;5037659;28;20057;-65
2023/08/25 08:23:02;;;;;;;8.65;3.63;;;;;;;;;;5037091;28;20127;-66
2023/08/25 08:25:29;;;;;;;4.90;3.63;;;;;;;;;;5036135;28;20071;-65
2023/08/25 08:27:56;;;;;;;4.57;3.83;;;;;;;;;;5036998;28;20088;-65
2023/08/25 08:30:21;;;;;;;4.47;3.88;;;;;;;;;;5036910;28;20030;-66
2023/08/25 08:32:47;;;;;;;6.45;3.72;;;;;;;;;;5019175;28;20117;-66
2023/08/25 08:35:12;;;;;;;6.32;3.67;;;;;;;;;;5036809;28;20120;-66
2023/08/25 08:37:38;;;;;;;5.30;3.53;;;;;;;;;;5037201;28;20033;-66
2023/08/25 08:40:10;;;;;;;7.07;3.83;;;;;;;;;;5036829;28;20435;-66
2023/08/25 08:42:36;;;;;;;5.82;3.58;;;;;;;;;;5035978;28;20029;-66
2023/08/25 08:45:04;;;;;;;4.03;3.13;;;;;;;;;;5019280;28;20009;-65
2023/08/25 08:47:30;;;;;;;7.00;3.72;;;;;;;;;;5019729;28;20025;-66
2023/08/25 08:49:57;;;;;;;4.78;3.92;;;;;;;;;;5037120;28;20033;-66
2023/08/25 08:52:23;;;;;;;5.20;4.00;;;;;;;;;;5036796;28;20039;-66
2023/08/25 08:54:49;;;;;;;8.13;4.10;;;;;;;;;;5036558;28;20057;-66
2023/08/25 08:57:15;;;;;;;3.90;3.55;;;;;;;;;;5036347;28;20489;-66
2023/08/25 08:59:41;;;;;;;7.07;4.43;;;;;;;;;;5035478;28;20021;-66
2023/08/25 09:02:07;;;;;;;4.10;3.60;;;;;;;;;;5036988;28;20040;-66
2023/08/25 09:04:33;;;;;;;7.43;4.15;;;;;;;;;;5036425;28;20026;-66
2023/08/25 09:07:00;;;;;;;4.15;3.72;;;;;;;;;;5036371;28;20044;-66
2023/08/25 09:09:26;;;;;;;4.45;3.92;;;;;;;;;;5017449;28;20469;-66
2023/08/25 09:11:51;;;;;;;4.60;4.13;;;;;;;;;;5035322;28;20441;-66
2023/08/25 09:14:27;;;;;;;6.97;4.57;;;;;;;;;;5017281;28;20068;-66
2023/08/25 09:17:02;;;;;;;4.68;4.20;;;;;;;;;;5034929;28;20479;-66
2023/08/25 09:19:31;;;;;;;10.00;4.32;;;;;;;;;;5034965;28;20041;-66
2023/08/25 09:21:56;;;;;;;5.10;4.22;;;;;;;;;;5035173;28;20041;-66
2023/08/25 09:24:22;;;;;;;5.88;4.53;;;;;;;;;;5035103;28;20033;-66
2023/08/25 09:26:47;;;;;;;7.70;5.07;;;;;;;;;;5033781;28;20029;-66
2023/08/25 09:29:13;;;;;;;3.85;3.55;;;;;;;;;;5017391;28;20049;-66
2023/08/25 09:31:38;;;;;;;5.30;4.63;;;;;;;;;;5034693;28;20079;-66
2023/08/25 09:34:05;;;;;;;4.75;4.10;;;;;;;;;;5035085;28;20107;-66
2023/08/25 09:36:30;;;;;;;7.72;2.85;;;;;;;;;;5034943;28;20080;-66
2023/08/25 09:38:55;;;;;;;4.60;3.58;;;;;;;;;;5034660;28;20037;-65
2023/08/25 09:41:25;;;;;;;6.90;4.40;;;;;;;;;;5033557;28;20025;-66
2023/08/25 09:43:55;;;;;;;3.78;3.00;;;;;;;;;;5034801;28;20025;-66
2023/08/25 09:46:25;;;;;;;7.60;5.47;;;;;;;;;;5017219;28;20040;-66
2023/08/25 09:48:53;;;;;;;3.97;3.63;;;;;;;;;;5000473;28;20113;-66
2023/08/25 09:51:19;;;;;;;4.68;4.20;;;;;;;;;;5034732;28;20091;-60
2023/08/25 09:53:45;;;;;;;7.57;5.63;;;;;;;;;;5033962;28;20420;-60
2023/08/25 09:56:10;;;;;;;5.65;5.15;;;;;;;;;;5034798;28;20033;-60
2023/08/25 09:58:37;;;;;;;6.03;4.85;;;;;;;;;;5016540;28;20034;-60
2023/08/25 10:01:04;;;;;;;10.82;5.57;;;;;;;;;;5034382;28;20473;-60
2023/08/25 10:03:35;;;;;;;5.28;4.85;;;;;;;;;;5034508;28;20458;-60
2023/08/25 10:06:01;;;;;;;8.18;3.83;;;;;;;;;;4995828;28;1122350;-60
2023/08/25 10:08:27;;;;;;;11.00;6.47;;;;;;;;;;5017734;28;20026;-60
2023/08/25 10:10:53;;;;;;;8.15;5.22;;;;;;;;;;5034590;28;20076;-60
2023/08/25 10:13:19;;;;;;;6.35;5.50;;;;;;;;;;5034977;28;20040;-60
2023/08/25 10:15:47;;;;;;;7.00;5.72;;;;;;;;;;5034959;28;20033;-60
2023/08/25 10:18:12;;;;;;;3.72;2.90;;;;;;;;;;5035161;28;20425;-60
2023/08/25 10:20:39;;;;;;;5.95;5.45;;;;;;;;;;5033675;28;20112;-60
2023/08/25 10:23:05;;;;;;;7.60;6.15;;;;;;;;;;5017648;28;20033;-60
2023/08/25 10:25:31;;;;;;;6.32;5.72;;;;;;;;;;5035216;28;20468;-60
2023/08/25 10:28:00;;;;;;;6.57;5.72;;;;;;;;;;5033673;28;20037;-60
2023/08/25 10:30:26;;;;;;;7.70;6.43;;;;;;;;;;5033823;28;20029;-60
2023/08/25 10:33:10;;;;;;;9.05;5.97;;;;;;;;;;5035292;28;20029;-60
2023/08/25 10:35:43;;;;;;;5.78;5.03;;;;;;;;;;5001190;28;20373;-60
2023/08/25 10:38:17;;;;;;;7.53;6.32;;;;;;;;;;5035199;28;20033;-60
2023/08/25 10:40:42;;;;;;;9.00;6.78;;;;;;;;;;5034652;28;20034;-60
2023/08/25 10:43:08;;;;;;;7.45;5.13;;;;;;;;;;5033419;28;20025;-60
2023/08/25 10:45:35;;;;;;;7.05;6.40;;;;;;;;;;5034634;28;20032;-59
2023/08/25 10:48:01;;;;;;;7.15;6.53;;;;;;;;;;5034568;28;20030;-60
2023/08/25 10:50:26;;;;;;;8.90;7.32;;;;;;;;;;5034721;28;20029;-59
2023/08/25 10:52:52;;;;;;;11.05;6.95;;;;;;;;;;5034795;28;20041;-59
2023/08/25 10:55:21;;;;;;;7.68;6.95;;;;;;;;;;5034743;28;20033;-60
2023/08/25 10:57:50;;;;;;;10.75;7.07;;;;;;;;;;5033510;28;20029;-60
2023/08/25 11:00:43;;;;;;;8.90;8.05;;;;;;;;;;5032959;28;20033;-66
2023/08/25 11:03:09;;;;;;;14.32;7.30;;;;;;;;;;5012487;28;20493;-63
2023/08/25 11:05:34;;;;;;;12.95;8.38;;;;;;;;;;5014932;28;20071;-64
2023/08/25 11:08:03;;;;;;;10.63;8.02;;;;;;;;;;5031821;28;20037;-61
2023/08/25 11:10:33;;;;;;;9.13;7.22;;;;;;;;;;5034566;28;20033;-59
2023/08/25 11:12:59;;;;;;;9.25;6.43;;;;;;;;;;5034245;28;20036;-59
2023/08/25 11:15:25;;;;;;;9.30;7.47;;;;;;;;;;5034357;28;20025;-58
2023/08/25 11:17:51;;;;;;;8.18;7.38;;;;;;;;;;5034201;28;20041;-58
2023/08/25 11:20:16;;;;;;;9.23;6.90;;;;;;;;;;5034278;28;20025;-58
2023/08/25 11:23:00;;;;;;;8.85;8.05;;;;;;;;;;5034150;28;20073;-58
2023/08/25 11:25:26;;;;;;;7.85;6.43;;;;;;;;;;5034047;28;20021;-59
2023/08/25 11:27:52;;;;;;;7.68;6.97;;;;;;;;;;5033768;28;20113;-58
2023/08/25 11:30:18;;;;;;;13.05;7.90;;;;;;;;;;5033628;28;20104;-59
2023/08/25 11:32:48;;;;;;;9.68;7.00;;;;;;;;;;5033569;28;20034;-58
2023/08/25 11:35:13;;;;;;;;;;;;;;;;;;5033208;28;20033;-58
2023/08/25 11:37:39;;;;;;;7.50;6.73;;;;;;;;;;5034499;28;19913;-58
2023/08/25 11:40:05;;;;;;;10.95;6.85;;;;;;;;;;5033566;28;20280;-58
2023/08/25 11:42:31;;;;;;;8.00;7.25;;;;;;;;;;5033772;28;20067;-58
2023/08/25 11:44:57;;;;;;;8.43;7.07;;;;;;;;;;5033752;28;20019;-58
2023/08/25 11:47:23;;;;;;;47.90;9.32;;;;;;;;;;5034127;28;20037;-58
2023/08/25 11:49:49;;;;;;;10.65;8.13;;;;;;;;;;5032376;28;20013;-58
2023/08/25 11:52:14;;;;;;;8.25;7.40;;;;;;;;;;5033534;28;20449;-58
2023/08/25 11:54:46;;;;;;;10.23;8.05;;;;;;;;;;5015908;28;20048;-58
2023/08/25 11:57:12;;;;;;;7.75;6.95;;;;;;;;;;5031982;28;20029;-58
2023/08/25 11:59:56;;;;;;;8.75;7.32;;;;;;;;;;5034077;28;20041;-58
2023/08/25 12:02:22;;;;;;;7.55;6.00;;;;;;;;;;5032649;28;20038;-63
2023/08/25 12:04:57;;;;;;;16.85;7.40;;;;;;;;;;5033579;28;20040;-63
2023/08/25 12:07:23;;;;;;;9.48;7.03;;;;;;;;;;5032399;28;20081;-63
2023/08/25 12:09:56;;;;;;;9.65;6.65;;;;;;;;;;5028192;28;20045;-63
2023/08/25 12:12:21;;;;;;;8.10;6.80;;;;;;;;;;5021972;28;20118;-64
2023/08/25 12:14:50;;;;;;;8.20;7.40;;;;;;;;;;5015270;28;20061;-64
2023/08/25 12:17:25;;;;;;;6.53;5.90;;;;;;;;;;5022396;28;20386;-63
2023/08/25 12:19:50;;;;;;;6.88;6.28;;;;;;;;;;5014028;28;20044;-63
2023/08/25 12:22:16;;;;;;;7.50;6.60;;;;;;;;;;5014057;28;20109;-63
2023/08/25 12:24:41;;;;;;;9.82;7.55;;;;;;;;;;5013697;28;20050;-63
2023/08/25 12:27:07;;;;;;;8.10;6.60;;;;;;;;;;5011912;28;20447;-64
2023/08/25 12:29:32;;;;;;;7.65;6.03;;;;;;;;;;5013706;28;20071;-64
2023/08/25 12:31:57;;;;;;;8.40;6.93;;;;;;;;;;5013662;28;20057;-64
2023/08/25 12:34:23;;;;;;;7.03;6.38;;;;;;;;;;5013627;28;20466;-64
2023/08/25 12:36:48;;;;;;;8.20;6.47;;;;;;;;;;5013582;28;20026;-64
2023/08/25 12:39:13;;;;;;;9.38;6.00;;;;;;;;;;5012541;28;20508;-64
2023/08/25 12:41:39;;;;;;;8.10;5.85;;;;;;;;;;5012990;28;20488;-64
2023/08/25 12:44:04;;;;;;;10.55;6.53;;;;;;;;;;5013273;28;20538;-64
2023/08/25 12:46:30;;;;;;;9.30;6.28;;;;;;;;;;5013573;28;20481;-58
2023/08/25 12:48:57;;;;;;;8.60;5.97;;;;;;;;;;5013965;28;20033;-58
2023/08/25 12:51:22;;;;;;;6.15;5.63;;;;;;;;;;5013277;28;20022;-58
2023/08/25 12:53:48;;;;;;;8.38;5.93;;;;;;;;;;5016856;28;20541;-58
2023/08/25 12:56:13;;;;;;;9.27;6.45;;;;;;;;;;5016897;28;20022;-58
2023/08/25 12:58:39;;;;;;;8.98;6.20;;;;;;;;;;5015936;28;20114;-58
2023/08/25 13:01:06;;;;;;;7.13;6.43;;;;;;;;;;5015858;28;20061;-59
2023/08/25 13:03:32;;;;;;;8.27;6.22;;;;;;;;;;4999569;28;20432;-58
2023/08/25 13:05:59;;;;;;;9.02;6.78;;;;;;;;;;5016840;28;20080;-58
2023/08/25 13:08:24;;;;;;;8.52;6.10;;;;;;;;;;5015349;28;20116;-64
2023/08/25 13:10:51;;;;;;;7.28;6.68;;;;;;;;;;5016272;28;20129;-64
2023/08/25 13:13:16;;;;;;;6.28;5.78;;;;;;;;;;5015240;28;20026;-64
2023/08/25 13:15:42;;;;;;;6.60;5.28;;;;;;;;;;5016386;28;20536;-63
2023/08/25 13:18:07;;;;;;;6.35;5.68;;;;;;;;;;5026049;28;20038;-63
2023/08/25 13:20:32;;;;;;;7.75;5.35;;;;;;;;;;5017886;28;20116;-64
2023/08/25 13:22:58;;;;;;;5.32;4.85;;;;;;;;;;5035292;28;20026;-64
2023/08/25 13:25:23;;;;;;;7.30;5.47;;;;;;;;;;5035429;28;20033;-64
2023/08/25 13:27:49;;;;;;;6.80;5.20;;;;;;;;;;5034404;28;20441;-64
2023/08/25 13:30:14;;;;;;;7.47;5.25;;;;;;;;;;5010424;28;20026;-64
2023/08/25 13:32:40;;;;;;;6.25;4.57;;;;;;;;;;5016282;28;20112;-59
2023/08/25 13:35:07;;;;;;;8.00;4.72;;;;;;;;;;5035638;28;20040;-58
2023/08/25 13:37:33;;;;;;;7.30;4.88;;;;;;;;;;5035782;28;20033;-59
2023/08/25 13:40:00;;;;;;;7.57;4.72;;;;;;;;;;5036289;28;20036;-59
2023/08/25 13:42:25;;;;;;;5.45;4.95;;;;;;;;;;5035556;28;20028;-59
2023/08/25 13:44:51;;;;;;;6.88;4.85;;;;;;;;;;5018082;28;20030;-59
2023/08/25 13:47:16;;;;;;;5.85;4.63;;;;;;;;;;5036125;28;20025;-59
2023/08/25 13:49:42;;;;;;;6.28;5.20;;;;;;;;;;5036178;28;20099;-59
2023/08/25 13:52:07;;;;;;;5.38;4.70;;;;;;;;;;5035675;28;20078;-59
2023/08/25 13:54:33;;;;;;;9.30;4.85;;;;;;;;;;5017976;28;20029;-59
2023/08/25 13:56:58;;;;;;;8.90;4.95;;;;;;;;;;5016701;28;20075;-59
2023/08/25 13:59:23;;;;;;;7.05;4.82;;;;;;;;;;5034993;28;20043;-59
2023/08/25 14:01:48;;;;;;;5.32;4.47;;;;;;;;;;5034542;28;20461;-59
2023/08/25 14:04:14;;;;;;;5.32;4.00;;;;;;;;;;5035062;28;20033;-59
2023/08/25 14:06:39;;;;;;;7.78;4.35;;;;;;;;;;5035005;28;20049;-59
2023/08/25 14:09:05;;;;;;;5.70;4.22;;;;;;;;;;5017483;28;20148;-59
2023/08/25 14:11:30;;;;;;;9.23;4.10;;;;;;;;;;5035008;28;20033;-59
2023/08/25 14:13:56;;;;;;;4.32;3.92;;;;;;;;;;5035336;28;20536;-59
2023/08/25 14:16:21;;;;;;;4.28;3.97;;;;;;;;;;5017854;28;20035;-59
2023/08/25 14:18:46;;;;;;;4.38;4.07;;;;;;;;;;5017612;28;20041;-59
2023/08/25 14:21:12;;;;;;;4.68;4.15;;;;;;;;;;5035390;28;20032;-59
2023/08/25 14:23:39;;;;;;;7.22;4.10;;;;;;;;;;5035115;28;20033;-59
2023/08/25 14:26:05;;;;;;;12.52;6.03;;;;;;;;;;5035412;28;20034;-59
2023/08/25 14:28:30;;;;;;;7.80;4.75;;;;;;;;;;5035006;28;20021;-59
2023/08/25 14:30:56;;;;;;;8.15;4.32;;;;;;;;;;5017725;28;20464;-59
2023/08/25 14:33:21;;;;;;;7.43;4.20;;;;;;;;;;5016938;28;20079;-59
2023/08/25 14:35:47;;;;;;;8.75;4.25;;;;;;;;;;5034597;28;20048;-59
2023/08/25 14:38:12;;;;;;;6.03;4.30;;;;;;;;;;5034876;28;20030;-59